createdAt,value
2023-01-04T00:00:52.192Z,2.70
2023-01-04T00:03:18.935Z,2.58
2023-01-04T00:05:45.607Z,3.03
2023-01-04T00:08:12.166Z,2.90
2023-01-04T00:10:38.724Z,2.55
2023-01-04T00:13:05.240Z,2.65
2023-01-04T00:15:31.932Z,2.60
2023-01-04T00:17:58.591Z,2.83
2023-01-04T00:20:25.173Z,2.58
2023-01-04T00:22:51.708Z,2.58
2023-01-04T00:25:18.321Z,2.50
2023-01-04T00:27:44.876Z,2.40
2023-01-04T00:30:11.835Z,2.97
2023-01-04T00:32:38.446Z,2.30
2023-01-04T00:35:05.368Z,2.60
2023-01-04T00:37:31.953Z,2.00
2023-01-04T00:39:58.545Z,2.40
2023-01-04T00:42:25.130Z,2.47
2023-01-04T00:44:51.741Z,2.28
2023-01-04T00:47:18.372Z,2.10
2023-01-04T00:49:44.976Z,2.40
2023-01-04T00:52:11.709Z,2.38
2023-01-04T00:54:38.258Z,2.17
2023-01-04T00:57:05.395Z,2.95
2023-01-04T00:59:31.997Z,2.72
2023-01-04T01:01:58.777Z,2.35
2023-01-04T01:04:25.775Z,2.70
2023-01-04T01:06:53.036Z,2.47
2023-01-04T01:09:22.928Z,2.33
2023-01-04T01:11:50.628Z,2.55
2023-01-04T01:14:20.569Z,2.42
2023-01-04T01:16:56.980Z,2.17
2023-01-04T01:19:26.597Z,2.28
2023-01-04T01:21:53.534Z,2.50
2023-01-04T01:24:20.138Z,2.10
2023-01-04T01:26:47.210Z,2.20
2023-01-04T01:29:13.792Z,2.25
2023-01-04T01:31:41.257Z,2.05
2023-01-04T01:34:08.622Z,1.88
2023-01-04T01:36:35.484Z,1.95
2023-01-04T01:39:02.163Z,3.05
2023-01-04T01:41:31.656Z,2.45
2023-01-04T01:44:02.902Z,1.98
2023-01-04T01:46:40.501Z,1.77
2023-01-04T01:49:14.482Z,1.70
2023-01-04T01:51:42.708Z,2.05
2023-01-04T01:54:15.800Z,1.77
2023-01-04T01:56:44.836Z,1.65
2023-01-04T01:59:13.853Z,1.98
2023-01-04T02:01:40.988Z,2.20
2023-01-04T02:04:09.013Z,1.90
2023-01-04T02:06:40.505Z,2.40
2023-01-04T02:09:08.076Z,2.00
2023-01-04T02:11:34.676Z,1.90
2023-01-04T02:14:21.774Z,1.70
2023-01-04T02:17:15.003Z,1.88
2023-01-04T02:20:06.930Z,2.10
2023-01-04T02:22:52.524Z,1.73
2023-01-04T02:25:37.935Z,3.10
2023-01-04T02:28:52.665Z,2.15
2023-01-04T02:31:33.444Z,1.73
2023-01-04T02:34:18.598Z,1.73
2023-01-04T02:36:54.247Z,2.42
2023-01-04T02:39:58.972Z,1.80
2023-01-04T02:43:10.766Z,1.73
2023-01-04T02:45:46.999Z,1.73
2023-01-04T02:48:31.831Z,1.83
2023-01-04T02:51:00.343Z,1.83
2023-01-04T02:53:39.084Z,1.60
2023-01-04T02:56:43.827Z,1.73
2023-01-04T02:59:28.852Z,1.70
2023-01-04T03:02:45.068Z,2.05
2023-01-04T03:05:47.196Z,1.60
2023-01-04T03:08:44.390Z,1.88
2023-01-04T03:11:35.058Z,2.00
2023-01-04T03:14:30.966Z,1.80
2023-01-04T03:17:03.946Z,1.63
2023-01-04T03:19:50.288Z,1.70
2023-01-04T03:22:39.099Z,1.75
2023-01-04T03:25:27.559Z,1.48
2023-01-04T03:28:14.384Z,1.77
2023-01-04T03:31:09.323Z,1.52
2023-01-04T03:33:55.154Z,1.67
2023-01-04T03:37:06.104Z,1.55
2023-01-04T03:40:17.507Z,1.83
2023-01-04T03:43:27.371Z,1.60
2023-01-04T03:46:21.045Z,1.50
2023-01-04T03:48:54.332Z,1.52
2023-01-04T03:51:29.628Z,1.70
2023-01-04T03:54:04.592Z,1.80
2023-01-04T03:56:33.335Z,1.70
2023-01-04T03:59:00.509Z,1.73
2023-01-04T04:01:28.516Z,1.60
2023-01-04T04:04:14.424Z,1.83
2023-01-04T04:07:00.224Z,1.90
2023-01-04T04:09:26.837Z,1.63
2023-01-04T04:11:53.735Z,1.35
2023-01-04T04:14:20.405Z,1.70
2023-01-04T04:16:47.067Z,2.08
2023-01-04T04:19:13.800Z,1.58
2023-01-04T04:21:40.769Z,1.90
2023-01-04T04:24:07.617Z,1.77
2023-01-04T04:26:34.212Z,1.60
2023-01-04T04:29:00.867Z,1.70
2023-01-04T04:31:27.587Z,1.40
2023-01-04T04:33:54.296Z,1.67
2023-01-04T04:36:20.993Z,1.90
2023-01-04T04:38:47.574Z,2.20
2023-01-04T04:41:33.134Z,1.20
2023-01-04T04:43:59.818Z,2.08
2023-01-04T04:46:26.723Z,1.63
2023-01-04T04:48:53.398Z,1.20
2023-01-04T04:51:20.274Z,1.75
2023-01-04T04:53:47.075Z,1.13
2023-01-04T04:56:13.635Z,1.30
2023-01-04T04:58:40.344Z,1.25
2023-01-04T05:01:07.749Z,1.60
2023-01-04T05:03:34.882Z,1.30
2023-01-04T05:06:01.968Z,1.08
2023-01-04T05:08:28.697Z,1.33
2023-01-04T05:10:55.506Z,1.77
2023-01-04T05:13:22.169Z,1.02
2023-01-04T05:15:51.138Z,1.10
2023-01-04T05:18:19.744Z,1.20
2023-01-04T05:20:46.864Z,1.10
2023-01-04T05:23:15.212Z,1.20
2023-01-04T05:25:42.150Z,1.20
2023-01-04T05:28:10.008Z,1.13
2023-01-04T05:30:51.776Z,1.00
2023-01-04T05:33:24.214Z,1.40
2023-01-04T05:35:51.957Z,1.25
2023-01-04T05:38:19.083Z,1.35
2023-01-04T05:40:46.410Z,1.10
2023-01-04T05:43:14.042Z,1.38
2023-01-04T05:45:44.722Z,1.10
2023-01-04T05:48:11.342Z,1.02
2023-01-04T05:50:37.955Z,1.17
2023-01-04T05:53:06.348Z,1.25
2023-01-04T05:55:33.415Z,1.25
2023-01-04T05:58:00.286Z,1.30
2023-01-04T06:00:27.612Z,0.90
2023-01-04T06:02:55.669Z,1.10
2023-01-04T06:05:23.284Z,1.13
2023-01-04T06:07:50.518Z,0.85
2023-01-04T06:10:17.999Z,1.25
2023-01-04T06:12:45.749Z,1.10
2023-01-04T06:15:12.313Z,1.30
2023-01-04T06:17:39.515Z,1.10
2023-01-04T06:20:09.429Z,1.10
2023-01-04T06:22:36.528Z,1.48
2023-01-04T06:25:03.803Z,1.15
2023-01-04T06:27:30.360Z,1.17
2023-01-04T06:29:57.081Z,1.23
2023-01-04T06:32:23.682Z,1.50
2023-01-04T06:34:50.282Z,1.73
2023-01-04T06:37:16.990Z,1.30
2023-01-04T06:39:43.665Z,1.23
2023-01-04T06:42:30.228Z,1.13
2023-01-04T06:44:56.907Z,1.70
2023-01-04T06:47:23.483Z,1.25
2023-01-04T06:49:50.072Z,1.25
2023-01-04T06:52:16.746Z,1.58
2023-01-04T06:54:43.387Z,1.50
2023-01-04T06:57:09.973Z,1.40
2023-01-04T06:59:36.569Z,1.52
2023-01-04T07:02:03.703Z,1.25
2023-01-04T07:04:30.387Z,1.30
2023-01-04T07:06:58.005Z,1.35
2023-01-04T07:09:24.629Z,1.70
2023-01-04T07:11:51.232Z,1.55
2023-01-04T07:14:18.016Z,1.45
2023-01-04T07:16:44.637Z,1.45
2023-01-04T07:19:11.367Z,1.50
2023-01-04T07:21:37.909Z,1.50
2023-01-04T07:24:04.577Z,1.40
2023-01-04T07:26:31.183Z,1.50
2023-01-04T07:29:17.016Z,1.70
2023-01-04T07:31:46.950Z,1.70
2023-01-04T07:34:14.959Z,1.33
2023-01-04T07:36:41.599Z,1.58
2023-01-04T07:39:12.722Z,1.40
2023-01-04T07:41:41.153Z,1.63
2023-01-04T07:44:09.307Z,2.08
2023-01-04T07:46:37.101Z,1.70
2023-01-04T07:49:04.254Z,1.88
2023-01-04T07:51:32.597Z,1.88
2023-01-04T07:53:59.931Z,1.60
2023-01-04T07:56:26.508Z,2.20
2023-01-04T07:58:57.187Z,1.60
2023-01-04T08:01:25.300Z,1.67
2023-01-04T08:03:52.924Z,2.05
2023-01-04T08:06:21.507Z,1.60
2023-01-04T08:08:48.603Z,2.10
2023-01-04T08:11:19.475Z,1.80
2023-01-04T08:13:46.121Z,1.70
2023-01-04T08:16:28.429Z,1.80
2023-01-04T08:18:56.125Z,1.75
2023-01-04T08:21:23.809Z,2.33
2023-01-04T08:23:51.911Z,2.30
2023-01-04T08:26:19.596Z,1.67
2023-01-04T08:28:46.211Z,1.83
2023-01-04T08:31:18.902Z,1.80
2023-01-04T08:33:46.710Z,1.73
2023-01-04T08:36:26.328Z,1.95
2023-01-04T08:38:59.949Z,1.70
2023-01-04T08:44:14.265Z,1.92
2023-01-04T08:46:40.928Z,2.33
2023-01-04T08:49:08.077Z,2.10
2023-01-04T08:51:35.058Z,2.13
2023-01-04T08:54:01.619Z,2.10
2023-01-04T08:56:28.198Z,1.92
2023-01-04T08:58:54.870Z,2.17
2023-01-04T09:01:21.709Z,2.17
2023-01-04T09:03:48.330Z,1.70
2023-01-04T09:06:16.217Z,2.00
2023-01-04T09:08:44.325Z,2.20
2023-01-04T09:11:16.572Z,1.90
2023-01-04T09:13:44.340Z,1.80
2023-01-04T09:16:17.161Z,1.77
2023-01-04T09:18:45.168Z,2.25
2023-01-04T09:21:14.556Z,1.83
2023-01-04T09:23:42.853Z,2.28
2023-01-04T09:26:18.302Z,1.98
2023-01-04T09:28:45.299Z,1.70
2023-01-04T09:31:16.811Z,2.17
2023-01-04T09:36:31.300Z,1.52
2023-01-04T09:38:57.947Z,2.38
2023-01-04T09:41:27.561Z,1.63
2023-01-04T09:43:54.137Z,1.70
2023-01-04T09:46:52.148Z,1.55
2023-01-04T09:49:29.202Z,1.98
2023-01-04T09:52:12.343Z,1.60
2023-01-04T09:55:37.008Z,1.85
2023-01-04T09:58:04.099Z,1.70
2023-01-04T10:00:44.944Z,1.67
2023-01-04T10:03:17.468Z,1.58
2023-01-04T10:05:44.624Z,1.70
2023-01-04T10:08:20.136Z,1.92
2023-01-04T10:11:10.905Z,1.48
2023-01-04T10:14:11.872Z,1.95
2023-01-04T10:22:42.896Z,2.00
2023-01-04T10:25:15.353Z,1.42
2023-01-04T10:27:43.186Z,1.70
2023-01-04T10:30:27.998Z,1.67
2023-01-04T10:33:15.696Z,1.90
2023-01-04T10:35:45.704Z,2.10
2023-01-04T10:38:24.036Z,1.20
2023-01-04T10:40:50.734Z,1.65
2023-01-04T10:43:17.237Z,1.20
2023-01-04T10:45:51.640Z,1.60
2023-01-04T10:48:21.189Z,1.40
2023-01-04T10:51:09.316Z,1.35
2023-01-04T10:54:06.240Z,1.80
2023-01-04T10:57:06.798Z,1.45
2023-01-04T10:59:52.456Z,1.42
2023-01-04T11:02:28.245Z,1.60
2023-01-04T11:05:02.730Z,1.50
2023-01-04T11:07:39.420Z,1.42
2023-01-04T11:10:17.517Z,1.58
2023-01-04T11:12:45.894Z,0.90
2023-01-04T11:15:12.779Z,1.58
2023-01-04T11:17:41.624Z,1.65
2023-01-04T11:20:09.051Z,1.30
2023-01-04T11:22:38.879Z,1.35
2023-01-04T11:28:02.943Z,1.67
2023-01-04T11:30:41.319Z,1.27
2023-01-04T11:33:22.608Z,1.67
2023-01-04T11:35:55.818Z,1.10
2023-01-04T11:38:31.395Z,1.50
2023-01-04T11:41:00.809Z,1.40
2023-01-04T11:43:30.584Z,1.65
2023-01-04T11:46:00.332Z,1.60
2023-01-04T11:48:45.400Z,2.00
2023-01-04T11:51:36.863Z,1.42
2023-01-04T11:54:15.501Z,1.70
2023-01-04T11:57:12.226Z,1.75
2023-01-04T11:59:39.327Z,1.58
2023-01-04T12:05:28.741Z,2.03
2023-01-04T12:07:56.701Z,1.80
2023-01-04T12:10:27.234Z,1.70
2023-01-04T12:12:55.479Z,1.70
2023-01-04T12:15:34.799Z,1.60
2023-01-04T12:18:07.928Z,2.00
2023-01-04T12:20:36.286Z,1.95
2023-01-04T12:23:02.919Z,1.75
2023-01-04T12:25:39.810Z,1.88
2023-01-04T12:28:06.867Z,1.65
2023-01-04T12:30:47.261Z,1.70
2023-01-04T12:33:32.005Z,1.70
2023-01-04T12:36:00.359Z,1.70
2023-01-04T12:38:54.805Z,1.80
2023-01-04T12:42:00.821Z,1.63
2023-01-04T12:44:37.033Z,2.20
2023-01-04T12:47:43.792Z,1.98
2023-01-04T12:50:24.985Z,1.85
2023-01-04T12:53:38.770Z,1.38
2023-01-04T12:55:45.600Z,1.95
2023-01-04T12:58:42.289Z,2.05
2023-01-04T13:01:28.080Z,1.70
2023-01-04T13:04:04.590Z,1.80
2023-01-04T13:06:40.011Z,1.30
2023-01-04T13:09:23.823Z,1.30
2023-01-04T13:12:06.182Z,1.83
2023-01-04T13:14:57.770Z,1.40
2023-01-04T13:17:26.509Z,1.50
2023-01-04T13:19:53.327Z,1.73
2023-01-04T13:22:29.370Z,1.52
2023-01-04T13:24:59.389Z,1.60
2023-01-04T13:27:27.266Z,1.20
2023-01-04T13:29:54.100Z,1.50
2023-01-04T13:32:46.957Z,1.60
2023-01-04T13:35:20.858Z,1.42
2023-01-04T13:37:50.000Z,1.38
2023-01-04T13:40:28.728Z,1.55
2023-01-04T13:43:23.978Z,1.30
2023-01-04T13:45:53.347Z,1.80
2023-01-04T13:48:23.872Z,1.40
2023-01-04T13:51:15.656Z,1.75
2023-01-04T13:53:42.505Z,1.23
2023-01-04T13:56:21.780Z,1.30
2023-01-04T13:58:48.604Z,1.50
2023-01-04T14:01:24.325Z,2.60
2023-01-04T14:03:55.453Z,1.35
2023-01-04T14:06:27.180Z,2.10
2023-01-04T14:09:43.630Z,1.85
2023-01-04T14:12:20.293Z,1.50
2023-01-04T14:14:55.685Z,2.00
2023-01-04T14:17:30.861Z,1.40
2023-01-04T14:20:02.214Z,1.30
2023-01-04T14:22:50.126Z,1.30
2023-01-04T14:25:38.301Z,1.33
2023-01-04T14:28:28.656Z,1.20
2023-01-04T14:31:01.507Z,1.23
2023-01-04T14:33:36.040Z,1.30
2023-01-04T14:36:09.937Z,1.45
2023-01-04T14:38:44.035Z,0.80
2023-01-04T14:41:42.730Z,1.05
2023-01-04T14:44:11.677Z,1.40
2023-01-04T14:46:39.345Z,1.00
2023-01-04T14:49:06.086Z,1.08
2023-01-04T14:51:46.382Z,0.90
2023-01-04T14:54:20.477Z,1.00
2023-01-04T14:56:50.894Z,1.48
2023-01-04T14:59:17.594Z,0.80
2023-01-04T15:01:44.382Z,0.88
2023-01-04T15:04:11.297Z,0.90
2023-01-04T15:06:47.768Z,1.40
2023-01-04T15:09:14.320Z,1.08
2023-01-04T15:11:40.940Z,0.93
2023-01-04T15:14:07.565Z,0.93
2023-01-04T15:16:34.201Z,0.70
2023-01-04T15:19:00.801Z,0.82
2023-01-04T15:21:27.521Z,1.00
2023-01-04T15:23:54.108Z,0.77
2023-01-04T15:26:20.708Z,0.80
2023-01-04T15:28:47.272Z,0.52
2023-01-04T15:31:14.786Z,0.70
2023-01-04T15:33:41.418Z,0.68
2023-01-04T15:36:11.807Z,0.60
2023-01-04T15:38:38.480Z,0.77
2023-01-04T15:41:33.035Z,0.73
2023-01-04T15:43:59.664Z,0.73
2023-01-04T15:46:26.329Z,0.63
2023-01-04T15:48:52.981Z,0.80
2023-01-04T15:51:19.631Z,0.85
2023-01-04T15:53:46.176Z,0.88
2023-01-04T15:56:13.025Z,0.68
2023-01-04T15:58:39.669Z,0.68
2023-01-04T16:01:11.791Z,0.90
2023-01-04T16:03:38.795Z,1.17
2023-01-04T16:06:13.627Z,0.95
2023-01-04T16:08:41.206Z,0.82
2023-01-04T16:11:13.952Z,1.08
2023-01-04T16:13:41.084Z,1.00
2023-01-04T16:16:08.588Z,1.00
2023-01-04T16:18:35.851Z,0.82
2023-01-04T16:21:06.850Z,0.93
2023-01-04T16:23:33.449Z,1.13
2023-01-04T16:26:07.182Z,0.77
2023-01-04T16:28:34.340Z,1.00
2023-01-04T16:31:01.140Z,1.00
2023-01-04T16:33:28.266Z,0.98
2023-01-04T16:36:04.006Z,0.95
2023-01-04T16:38:30.877Z,1.33
2023-01-04T16:41:01.953Z,1.15
2023-01-04T16:43:30.481Z,0.95
2023-01-04T16:46:12.463Z,1.40
2023-01-04T16:51:08.898Z,1.10
2023-01-04T16:53:36.490Z,1.08
2023-01-04T16:56:04.703Z,1.27
2023-01-04T16:58:31.334Z,1.23
2023-01-04T17:01:15.812Z,1.30
2023-01-04T17:03:43.729Z,1.13
2023-01-04T17:06:19.943Z,1.63
2023-01-04T17:08:48.564Z,1.20
2023-01-04T17:12:11.441Z,1.10
2023-01-04T17:16:35.503Z,1.10
2023-01-04T17:19:02.449Z,0.90
2023-01-04T17:21:34.660Z,0.82
2023-01-04T17:24:02.122Z,1.20
2023-01-04T17:26:30.558Z,0.98
2023-01-04T17:28:58.902Z,1.02
2023-01-04T17:31:40.221Z,1.38
2023-01-04T17:34:09.961Z,1.30
2023-01-04T17:36:37.439Z,1.00
2023-01-04T17:39:04.217Z,1.27
2023-01-04T17:41:31.685Z,1.10
2023-01-04T17:44:06.791Z,0.80
2023-01-04T17:46:37.430Z,1.00
2023-01-04T17:49:22.259Z,1.17
2023-01-04T17:51:51.075Z,1.00
2023-01-04T17:54:18.162Z,0.90
2023-01-04T17:56:44.728Z,0.98
2023-01-04T17:59:12.039Z,0.85
2023-01-04T18:01:38.839Z,0.80
2023-01-04T18:04:06.029Z,0.95
2023-01-04T18:06:35.967Z,0.80
2023-01-04T18:09:05.329Z,1.15
2023-01-04T18:11:31.920Z,0.88
2023-01-04T18:13:58.815Z,0.85
2023-01-04T18:16:27.680Z,1.10
2023-01-04T18:18:55.515Z,0.90
2023-01-04T18:21:28.597Z,0.90
2023-01-04T18:24:34.583Z,1.00
2023-01-04T18:27:19.938Z,1.15
2023-01-04T18:29:34.185Z,0.80
2023-01-04T18:32:01.049Z,0.75
2023-01-04T18:34:27.743Z,0.82
2023-01-04T18:36:54.446Z,0.80
2023-01-04T18:39:21.528Z,1.27
2023-01-04T18:41:48.566Z,1.10
2023-01-04T18:47:03.114Z,1.00
2023-01-04T18:49:29.820Z,1.27
2023-01-04T18:51:56.436Z,1.40
2023-01-04T18:54:23.083Z,1.40
2023-01-04T18:56:49.795Z,1.08
2023-01-04T18:59:19.251Z,1.30
2023-01-04T19:01:46.193Z,1.30
2023-01-04T19:04:13.711Z,1.38
2023-01-04T19:06:41.037Z,1.30
2023-01-04T19:09:08.546Z,1.58
2023-01-04T19:11:36.049Z,1.88
2023-01-04T19:14:03.640Z,1.70
2023-01-04T19:16:31.662Z,1.60
2023-01-04T19:19:00.961Z,1.55
2023-01-04T19:21:28.732Z,1.20
2023-01-04T19:23:56.003Z,1.35
2023-01-04T19:26:23.809Z,1.60
2023-01-04T19:28:51.330Z,1.45
2023-01-04T19:31:20.678Z,1.25
2023-01-04T19:33:48.217Z,1.20
2023-01-04T19:36:16.813Z,1.40
2023-01-04T19:38:43.377Z,1.42
2023-01-04T19:41:26.358Z,1.40
2023-01-04T19:43:57.855Z,1.42
2023-01-04T19:46:24.550Z,1.55
2023-01-04T19:48:51.119Z,1.30
2023-01-04T19:51:17.879Z,1.77
2023-01-04T19:53:44.670Z,1.38
2023-01-04T19:56:12.277Z,1.55
2023-01-04T19:58:39.460Z,1.50
2023-01-04T20:01:06.645Z,1.40
2023-01-04T20:03:33.749Z,1.45
2023-01-04T20:06:05.273Z,1.90
2023-01-04T20:08:32.800Z,1.85
2023-01-04T20:11:01.365Z,1.65
2023-01-04T20:13:29.796Z,1.15
2023-01-04T20:15:56.378Z,1.55
2023-01-04T20:18:26.020Z,1.23
2023-01-04T20:20:52.880Z,1.25
2023-01-04T20:23:21.804Z,1.40
2023-01-04T20:25:53.247Z,1.15
2023-01-04T20:28:22.594Z,1.42
2023-01-04T20:30:49.478Z,1.30
2023-01-04T20:33:16.096Z,1.42
2023-01-04T20:35:44.232Z,1.45
2023-01-04T20:38:12.119Z,1.27
2023-01-04T20:40:39.251Z,1.48
2023-01-04T20:43:24.991Z,1.42
2023-01-04T20:45:51.760Z,1.10
2023-01-04T20:48:18.680Z,1.20
2023-01-04T20:50:45.347Z,1.23
2023-01-04T20:53:13.574Z,0.90
2023-01-04T20:55:42.059Z,1.00
2023-01-04T20:58:09.677Z,1.13
2023-01-04T21:00:39.829Z,1.33
2023-01-04T21:03:08.212Z,1.05
2023-01-04T21:05:43.154Z,0.90
2023-01-04T21:08:10.870Z,0.90
2023-01-04T21:10:41.712Z,0.90
2023-01-04T21:13:08.541Z,0.90
2023-01-04T21:15:37.174Z,0.50
2023-01-04T21:18:07.428Z,0.70
2023-01-04T21:20:34.246Z,0.60
2023-01-04T21:23:00.810Z,0.70
2023-01-04T21:25:27.409Z,0.35
2023-01-04T21:27:53.968Z,0.32
2023-01-04T21:30:20.980Z,0.45
2023-01-04T21:32:47.644Z,0.40
2023-01-04T21:35:14.210Z,0.50
2023-01-04T21:37:40.746Z,0.30
2023-01-04T21:40:07.787Z,0.40
2023-01-04T21:42:34.482Z,0.47
2023-01-04T21:45:01.053Z,0.40
2023-01-04T21:47:30.654Z,0.20
2023-01-04T21:49:57.265Z,0.20
2023-01-04T21:52:23.958Z,0.30
2023-01-04T21:54:50.533Z,0.40
2023-01-04T21:57:17.239Z,0.50
2023-01-04T21:59:43.903Z,0.30
2023-01-04T22:02:15.700Z,0.30
2023-01-04T22:04:42.544Z,0.40
2023-01-04T22:07:09.496Z,0.35
2023-01-04T22:09:36.284Z,0.40
2023-01-04T22:12:05.223Z,0.43
2023-01-04T22:14:33.195Z,0.60
2023-01-04T22:17:00.425Z,0.50
2023-01-04T22:19:27.537Z,0.50
2023-01-04T22:21:54.105Z,0.38
2023-01-04T22:24:20.731Z,0.40
2023-01-04T22:26:49.287Z,0.60
2023-01-04T22:29:16.258Z,0.57
2023-01-04T22:31:42.981Z,0.60
2023-01-04T22:34:09.684Z,0.60
2023-01-04T22:36:36.256Z,0.40
2023-01-04T22:39:02.908Z,0.40
2023-01-04T22:41:29.504Z,0.30
2023-01-04T22:43:58.094Z,0.40
2023-01-04T22:46:26.530Z,0.60
2023-01-04T22:48:53.198Z,0.52
2023-01-04T22:51:20.595Z,0.80
2023-01-04T22:53:47.975Z,0.40
2023-01-04T22:56:21.072Z,0.60
2023-01-04T22:58:53.456Z,0.40
2023-01-04T23:01:26.509Z,0.52
2023-01-04T23:06:20.676Z,0.77
2023-01-04T23:08:47.288Z,0.75
2023-01-04T23:11:16.833Z,0.65
2023-01-04T23:13:43.686Z,0.52
2023-01-04T23:16:12.822Z,0.52
2023-01-04T23:18:40.155Z,0.50
2023-01-04T23:21:07.671Z,0.52
2023-01-04T23:23:34.271Z,0.60
2023-01-04T23:26:06.433Z,0.70
2023-01-04T23:28:36.084Z,0.60
2023-01-04T23:31:05.160Z,0.50
2023-01-04T23:33:35.850Z,0.50
2023-01-04T23:36:15.562Z,0.57
2023-01-04T23:38:43.279Z,0.60
2023-01-04T23:41:11.555Z,0.88
2023-01-04T23:43:39.010Z,0.40
2023-01-04T23:46:12.448Z,0.50
2023-01-04T23:48:39.452Z,0.40
2023-01-04T23:51:06.234Z,0.40
2023-01-04T23:53:32.888Z,0.55
2023-01-04T23:56:05.440Z,0.40
2023-01-04T23:58:32.965Z,0.50
